createdAt,value
2018-10-06T00:01:57.877Z,16.50
2018-10-06T00:04:27.490Z,15.27
2018-10-06T00:06:57.150Z,14.77
2018-10-06T00:09:29.064Z,15.83
2018-10-06T00:11:58.766Z,16.63
2018-10-06T00:14:28.504Z,22.53
2018-10-06T00:16:58.202Z,17.90
2018-10-06T00:19:27.886Z,19.80
2018-10-06T00:21:57.742Z,19.20
2018-10-06T00:24:27.351Z,17.73
2018-10-06T00:26:57.065Z,17.27
2018-10-06T00:29:26.822Z,18.53
2018-10-06T00:31:56.558Z,17.87
2018-10-06T00:34:26.525Z,17.03
2018-10-06T00:36:56.306Z,17.37
2018-10-06T00:39:26.026Z,16.70
2018-10-06T00:41:55.786Z,16.80
2018-10-06T00:44:25.476Z,16.40
2018-10-06T00:46:55.278Z,18.93
2018-10-06T00:49:25.036Z,16.03
2018-10-06T00:51:54.726Z,17.43
2018-10-06T00:54:24.443Z,19.50
2018-10-06T00:56:54.123Z,15.97
2018-10-06T00:59:23.989Z,21.97
2018-10-06T01:01:53.706Z,24.23
2018-10-06T01:04:23.668Z,22.20
2018-10-06T01:06:53.333Z,23.93
2018-10-06T01:09:23.130Z,36.47
2018-10-06T01:11:52.806Z,43.73
2018-10-06T01:17:23.541Z,48.80
2018-10-06T01:19:53.350Z,45.37
2018-10-06T01:22:23.067Z,42.57
2018-10-06T01:24:52.770Z,34.07
2018-10-06T01:27:22.507Z,25.23
2018-10-06T01:29:52.354Z,26.57
2018-10-06T01:32:22.179Z,21.97
2018-10-06T01:34:52.014Z,26.00
2018-10-06T01:37:21.823Z,23.50
2018-10-06T01:39:51.655Z,30.13
2018-10-06T01:42:21.318Z,42.37
2018-10-06T01:44:50.970Z,31.00
2018-10-06T01:47:20.611Z,29.70
2018-10-06T01:49:50.416Z,38.33
2018-10-06T01:52:20.004Z,38.30
2018-10-06T01:54:49.684Z,26.93
2018-10-06T01:57:19.379Z,49.13
2018-10-06T01:59:49.030Z,32.00
2018-10-06T02:02:18.702Z,27.00
2018-10-06T02:04:48.290Z,31.30
2018-10-06T02:07:18.010Z,31.50
2018-10-06T02:09:47.694Z,46.17
2018-10-06T02:12:17.239Z,45.87
2018-10-06T02:14:47.040Z,39.87
2018-10-06T02:17:16.718Z,37.60
2018-10-06T02:19:46.407Z,52.43
2018-10-06T02:22:16.151Z,40.03
2018-10-06T02:24:45.874Z,64.00
2018-10-06T02:27:15.511Z,41.53
2018-10-06T02:29:45.161Z,43.87
2018-10-06T02:32:14.979Z,52.27
2018-10-06T02:34:44.682Z,32.10
2018-10-06T02:37:14.302Z,37.73
2018-10-06T02:39:44.011Z,64.90
2018-10-06T02:42:13.705Z,69.37
2018-10-06T02:44:43.354Z,52.70
2018-10-06T02:47:13.047Z,61.47
2018-10-06T02:49:42.701Z,63.80
2018-10-06T02:52:12.309Z,71.73
2018-10-06T02:54:41.974Z,43.57
2018-10-06T02:57:11.643Z,53.67
2018-10-06T02:59:41.326Z,62.90
2018-10-06T03:02:11.111Z,54.07
2018-10-06T03:04:40.840Z,43.03
2018-10-06T03:07:10.485Z,70.90
2018-10-06T03:09:40.191Z,50.40
2018-10-06T03:12:09.798Z,65.90
2018-10-06T03:14:39.665Z,105.10
2018-10-06T03:17:09.674Z,103.73
2018-10-06T03:19:39.351Z,66.30
2018-10-06T03:22:09.006Z,59.17
2018-10-06T03:24:38.613Z,38.93
2018-10-06T03:27:08.342Z,66.87
2018-10-06T03:29:38.033Z,98.03
2018-10-06T03:32:07.714Z,54.87
2018-10-06T03:34:37.459Z,64.47
2018-10-06T03:37:07.178Z,69.30
2018-10-06T03:39:36.800Z,87.43
2018-10-06T03:42:06.738Z,56.03
2018-10-06T03:44:36.403Z,61.60
2018-10-06T03:47:06.215Z,64.13
2018-10-06T03:49:35.885Z,67.50
2018-10-06T03:52:05.683Z,45.17
2018-10-06T03:54:35.290Z,54.73
2018-10-06T03:57:05.072Z,62.77
2018-10-06T03:59:34.795Z,61.73
2018-10-06T04:02:05.604Z,45.50
2018-10-06T04:04:35.280Z,72.97
2018-10-06T04:07:05.067Z,63.70
2018-10-06T04:09:34.891Z,47.70
2018-10-06T04:12:04.784Z,40.57
2018-10-06T04:14:34.498Z,49.90
2018-10-06T04:17:04.096Z,33.30
2018-10-06T04:19:33.915Z,36.67
2018-10-06T04:22:03.638Z,37.63
2018-10-06T04:24:33.290Z,56.30
2018-10-06T04:27:02.937Z,45.27
2018-10-06T04:29:32.611Z,51.03
2018-10-06T04:32:07.226Z,29.57
2018-10-06T04:34:37.062Z,44.27
2018-10-06T04:37:06.830Z,42.63
2018-10-06T04:39:36.559Z,33.97
2018-10-06T04:42:06.296Z,31.97
2018-10-06T04:44:36.207Z,22.47
2018-10-06T04:47:06.160Z,39.17
2018-10-06T04:49:35.918Z,34.27
2018-10-06T04:52:05.765Z,37.50
2018-10-06T04:54:35.485Z,30.50
2018-10-06T04:57:05.212Z,43.40
2018-10-06T04:59:34.827Z,47.37
2018-10-06T05:02:04.525Z,46.73
2018-10-06T05:04:34.123Z,36.73
2018-10-06T05:07:03.780Z,35.07
2018-10-06T05:09:33.543Z,29.27
2018-10-06T05:12:03.339Z,28.87
2018-10-06T05:26:39.282Z,33.27
2018-10-06T05:29:08.951Z,23.87
2018-10-06T05:31:38.826Z,37.60
2018-10-06T05:34:08.650Z,52.73
2018-10-06T05:36:38.303Z,66.03
2018-10-06T05:39:10.498Z,104.33
2018-10-06T05:41:40.255Z,77.23
2018-10-06T05:44:10.209Z,94.40
2018-10-06T05:46:39.872Z,130.63
2018-10-06T05:49:09.519Z,102.03
2018-10-06T05:51:39.246Z,82.63
2018-10-06T05:54:29.825Z,76.53
2018-10-06T05:56:59.454Z,72.57
2018-10-06T05:59:29.084Z,46.93
2018-10-06T06:01:58.795Z,43.87
2018-10-06T06:04:43.310Z,50.10
2018-10-06T06:07:13.143Z,56.87
2018-10-06T06:09:43.160Z,54.23
2018-10-06T06:12:12.762Z,53.97
2018-10-06T06:14:42.498Z,101.23
2018-10-06T06:17:12.174Z,47.37
2018-10-06T06:19:42.214Z,54.60
2018-10-06T06:22:11.900Z,55.23
2018-10-06T06:24:45.005Z,55.30
2018-10-06T06:27:14.825Z,55.10
2018-10-06T06:29:44.571Z,64.60
2018-10-06T06:32:14.285Z,50.77
2018-10-06T06:34:50.283Z,29.57
2018-10-06T06:37:19.998Z,75.93
2018-10-06T06:39:49.652Z,58.37
2018-10-06T06:42:19.352Z,33.17
2018-10-06T06:44:49.012Z,27.33
2018-10-06T06:47:18.989Z,74.50
2018-10-06T06:49:52.846Z,35.70
2018-10-06T06:52:22.591Z,45.27
2018-10-06T06:54:52.220Z,43.60
2018-10-06T06:57:21.939Z,23.90
2018-10-06T06:59:51.647Z,27.30
2018-10-06T07:02:21.487Z,28.40
2018-10-06T07:04:51.192Z,31.23
2018-10-06T07:07:22.995Z,25.90
2018-10-06T07:09:52.694Z,16.63
2018-10-06T07:12:22.535Z,23.03
2018-10-06T07:15:05.766Z,20.63
2018-10-06T07:17:35.428Z,20.03
2018-10-06T07:20:05.082Z,17.03
2018-10-06T07:22:34.790Z,15.17
2018-10-06T07:25:04.455Z,18.13
2018-10-06T07:27:34.161Z,15.87
2018-10-06T07:30:04.088Z,17.23
2018-10-06T07:32:34.308Z,15.03
2018-10-06T07:35:04.444Z,14.27
2018-10-06T07:37:34.360Z,15.23
2018-10-06T07:40:04.389Z,12.67
2018-10-06T07:42:34.015Z,14.07
2018-10-06T07:45:11.634Z,16.13
2018-10-06T07:47:45.525Z,14.17
2018-10-06T07:50:23.947Z,14.53
2018-10-06T07:52:59.119Z,13.90
2018-10-06T07:55:28.702Z,15.00
2018-10-06T07:57:59.133Z,16.90
2018-10-06T08:00:28.994Z,16.77
2018-10-06T08:02:59.618Z,17.27
2018-10-06T08:05:36.396Z,17.77
2018-10-06T08:08:05.977Z,16.70
2018-10-06T08:10:35.319Z,16.20
2018-10-06T08:13:29.884Z,16.47
2018-10-06T08:15:59.474Z,16.17
2018-10-06T08:18:28.865Z,15.07
2018-10-06T08:20:58.436Z,17.63
2018-10-06T08:23:27.951Z,16.50
2018-10-06T08:25:57.430Z,14.43
2018-10-06T08:28:27.746Z,16.10
2018-10-06T08:30:57.503Z,17.13
2018-10-06T08:33:27.070Z,18.17
2018-10-06T08:36:02.144Z,16.10
2018-10-06T08:38:33.517Z,14.57
2018-10-06T08:41:03.029Z,17.70
2018-10-06T08:43:32.595Z,17.17
2018-10-06T08:46:02.505Z,17.00
2018-10-06T08:48:32.093Z,17.27
2018-10-06T08:51:01.902Z,19.23
2018-10-06T08:53:31.543Z,19.37
2018-10-06T08:56:00.989Z,17.73
2018-10-06T08:58:30.568Z,17.17
2018-10-06T09:01:00.230Z,17.50
2018-10-06T09:03:32.657Z,18.90
2018-10-06T09:06:02.038Z,18.43
2018-10-06T09:08:31.511Z,20.17
2018-10-06T09:11:01.311Z,19.90
2018-10-06T09:13:30.945Z,20.40
2018-10-06T09:16:01.304Z,21.10
2018-10-06T09:18:30.774Z,21.30
2018-10-06T09:21:03.102Z,21.30
2018-10-06T09:23:33.193Z,21.80
2018-10-06T09:26:06.529Z,19.37
2018-10-06T09:28:35.897Z,21.37
2018-10-06T09:31:05.271Z,21.87
2018-10-06T09:33:55.833Z,21.67
2018-10-06T09:36:35.914Z,18.43
2018-10-06T09:39:18.472Z,19.37
2018-10-06T09:41:50.528Z,17.83
2018-10-06T09:44:21.095Z,26.00
2018-10-06T09:46:50.738Z,16.53
2018-10-06T09:49:20.308Z,18.33
2018-10-06T09:51:49.756Z,17.63
2018-10-06T09:54:19.282Z,17.63
2018-10-06T09:56:48.594Z,17.53
2018-10-06T09:59:17.953Z,19.23
2018-10-06T10:01:52.541Z,19.87
2018-10-06T10:04:22.173Z,16.10
2018-10-06T10:07:03.865Z,19.43
2018-10-06T10:09:33.985Z,15.47
2018-10-06T10:12:03.708Z,16.33
2018-10-06T10:14:39.294Z,14.23
2018-10-06T10:17:27.088Z,15.70
2018-10-06T10:19:56.843Z,13.32
2018-10-06T10:22:29.517Z,9.68
2018-10-06T10:24:58.781Z,11.55
2018-10-06T10:27:28.174Z,11.20
2018-10-06T10:29:57.564Z,10.50
2018-10-06T10:32:46.902Z,10.85
2018-10-06T10:35:16.340Z,11.60
2018-10-06T10:37:50.681Z,11.08
2018-10-06T10:40:20.110Z,12.23
2018-10-06T10:42:49.485Z,9.20
2018-10-06T10:45:24.953Z,10.80
2018-10-06T10:47:54.325Z,10.33
2018-10-06T10:50:28.870Z,11.17
2018-10-06T10:52:58.320Z,9.47
2018-10-06T10:55:27.876Z,17.10
2018-10-06T10:57:57.327Z,11.30
2018-10-06T11:00:32.178Z,12.80
2018-10-06T11:03:01.538Z,10.60
2018-10-06T11:05:30.913Z,9.78
2018-10-06T11:08:00.316Z,12.87
2018-10-06T11:10:29.654Z,9.68
2018-10-06T11:12:59.065Z,9.57
2018-10-06T11:15:28.816Z,10.58
2018-10-06T11:17:59.609Z,11.53
2018-10-06T11:20:28.954Z,9.95
2018-10-06T11:22:58.363Z,10.05
2018-10-06T11:25:27.709Z,9.83
2018-10-06T11:27:57.229Z,9.40
2018-10-06T11:30:38.293Z,10.70
2018-10-06T11:33:07.660Z,9.65
2018-10-06T11:35:37.283Z,8.88
2018-10-06T11:38:06.941Z,9.80
2018-10-06T11:40:39.897Z,9.13
2018-10-06T11:43:26.171Z,10.15
2018-10-06T11:45:55.501Z,9.95
2018-10-06T11:48:24.813Z,9.43
2018-10-06T11:50:54.154Z,12.15
2018-10-06T11:53:27.563Z,8.05
2018-10-06T11:55:57.111Z,10.93
2018-10-06T11:58:26.417Z,8.03
2018-10-06T12:00:55.737Z,10.08
2018-10-06T12:03:25.065Z,8.60
2018-10-06T12:05:54.431Z,9.83
2018-10-06T12:08:23.711Z,9.88
2018-10-06T12:10:53.045Z,6.55
2018-10-06T12:13:22.541Z,6.97
2018-10-06T12:15:51.853Z,7.30
2018-10-06T12:18:23.231Z,6.90
2018-10-06T12:20:52.513Z,8.18
2018-10-06T12:23:21.900Z,9.40
2018-10-06T12:25:51.266Z,7.33
2018-10-06T12:28:20.949Z,7.60
2018-10-06T12:30:50.353Z,6.35
2018-10-06T12:33:19.665Z,6.62
2018-10-06T12:35:49.086Z,6.42
2018-10-06T12:38:18.725Z,6.87
2018-10-06T12:40:48.111Z,7.47
2018-10-06T12:43:17.429Z,8.38
2018-10-06T12:45:46.831Z,8.10
2018-10-06T12:48:16.191Z,8.15
2018-10-06T12:50:45.647Z,7.85
2018-10-06T12:53:15.033Z,6.65
2018-10-06T12:55:44.577Z,8.18
2018-10-06T12:58:13.993Z,6.33
2018-10-06T13:00:44.415Z,8.68
2018-10-06T13:03:13.766Z,6.00
2018-10-06T13:05:43.138Z,10.45
2018-10-06T13:08:14.127Z,6.85
2018-10-06T13:10:43.470Z,7.53
2018-10-06T13:13:12.800Z,6.03
2018-10-06T13:15:43.172Z,6.75
2018-10-06T13:18:12.532Z,7.50
2018-10-06T13:20:41.840Z,7.12
2018-10-06T13:23:11.473Z,7.55
2018-10-06T13:28:52.473Z,8.00
2018-10-06T13:31:22.137Z,7.53
2018-10-06T13:33:51.451Z,8.03
2018-10-06T13:36:20.913Z,8.45
2018-10-06T13:38:50.346Z,11.12
2018-10-06T13:44:27.477Z,8.50
2018-10-06T13:46:56.903Z,8.55
2018-10-06T13:49:26.317Z,10.10
2018-10-06T13:51:55.661Z,11.18
2018-10-06T13:54:41.789Z,10.85
2018-10-06T13:57:17.064Z,11.90
2018-10-06T13:59:46.411Z,13.70
2018-10-06T14:02:16.685Z,9.48
2018-10-06T14:04:50.054Z,9.93
2018-10-06T14:07:26.854Z,8.53
2018-10-06T14:09:56.789Z,9.53
2018-10-06T14:15:27.342Z,7.25
2018-10-06T14:18:04.202Z,6.78
2018-10-06T14:20:33.599Z,7.37
2018-10-06T14:23:02.900Z,7.00
2018-10-06T14:25:32.433Z,9.40
2018-10-06T14:28:01.895Z,9.78
2018-10-06T14:30:31.337Z,10.63
2018-10-06T14:33:06.452Z,13.60
2018-10-06T14:35:35.769Z,13.73
2018-10-06T14:38:05.168Z,13.00
2018-10-06T14:40:34.980Z,14.80
2018-10-06T14:43:04.842Z,13.43
2018-10-06T14:45:56.498Z,13.00
2018-10-06T14:48:25.812Z,14.87
2018-10-06T14:50:55.130Z,13.90
2018-10-06T14:53:31.521Z,16.20
2018-10-06T14:56:00.882Z,13.90
2018-10-06T14:58:30.213Z,13.57
2018-10-06T15:00:59.550Z,13.97
2018-10-06T15:03:28.894Z,13.40
2018-10-06T15:05:58.233Z,15.80
2018-10-06T15:08:27.557Z,13.83
2018-10-06T15:11:02.485Z,15.80
2018-10-06T15:13:31.835Z,12.33
2018-10-06T15:16:09.423Z,11.27
2018-10-06T15:18:38.800Z,15.20
2018-10-06T15:21:08.217Z,21.37
2018-10-06T15:23:37.867Z,11.57
2018-10-06T15:26:07.644Z,13.87
2018-10-06T15:28:36.996Z,12.53
2018-10-06T15:31:06.633Z,12.50
2018-10-06T15:33:36.133Z,19.97
2018-10-06T15:36:30.328Z,15.87
2018-10-06T15:38:59.710Z,16.90
2018-10-06T15:41:29.058Z,13.40
2018-10-06T15:43:58.598Z,14.33
2018-10-06T15:46:32.347Z,14.20
2018-10-06T15:49:07.398Z,13.03
2018-10-06T15:51:37.122Z,14.47
2018-10-06T15:54:06.726Z,15.03
2018-10-06T15:56:38.326Z,14.00
2018-10-06T15:59:07.581Z,16.93
2018-10-06T16:02:01.429Z,14.03
2018-10-06T16:04:48.553Z,14.37
2018-10-06T16:07:17.901Z,17.60
2018-10-06T16:09:47.252Z,15.40
2018-10-06T16:12:16.646Z,16.57
2018-10-06T16:14:45.950Z,15.63
2018-10-06T16:17:16.444Z,19.80
2018-10-06T16:23:02.823Z,15.17
2018-10-06T16:25:32.231Z,16.63
2018-10-06T16:28:01.714Z,13.33
2018-10-06T16:30:31.070Z,12.30
2018-10-06T16:33:00.990Z,15.00
2018-10-06T16:35:30.299Z,15.43
2018-10-06T16:37:59.781Z,15.63
2018-10-06T16:40:29.182Z,15.97
2018-10-06T16:42:58.482Z,16.83
2018-10-06T16:45:27.863Z,16.10
2018-10-06T16:47:57.169Z,16.00
2018-10-06T16:50:26.484Z,17.10
2018-10-06T16:52:55.793Z,14.50
2018-10-06T16:55:25.182Z,16.50
2018-10-06T16:57:54.486Z,13.03
2018-10-06T17:00:23.962Z,13.23
2018-10-06T17:02:53.285Z,20.13
2018-10-06T17:05:22.595Z,13.10
2018-10-06T17:07:51.927Z,13.97
2018-10-06T17:10:21.238Z,11.50
2018-10-06T17:12:50.595Z,12.23
2018-10-06T17:15:19.900Z,14.23
2018-10-06T17:17:49.240Z,13.57
2018-10-06T17:20:18.562Z,16.97
2018-10-06T17:22:47.890Z,13.60
2018-10-06T17:25:17.335Z,13.37
2018-10-06T17:27:46.709Z,12.73
2018-10-06T17:30:16.133Z,13.33
2018-10-06T17:32:45.533Z,15.00
2018-10-06T17:35:14.978Z,12.17
2018-10-06T17:37:44.317Z,13.23
2018-10-06T17:40:13.764Z,12.63
2018-10-06T17:42:43.137Z,12.40
2018-10-06T17:45:12.455Z,13.30
2018-10-06T17:47:41.927Z,12.83
2018-10-06T17:50:22.427Z,11.63
2018-10-06T17:52:51.690Z,17.17
2018-10-06T17:55:21.003Z,12.87
2018-10-06T17:57:50.321Z,14.03
2018-10-06T18:00:19.809Z,15.30
2018-10-06T18:02:49.229Z,14.37
2018-10-06T18:05:18.681Z,15.07
2018-10-06T18:07:48.149Z,14.03
2018-10-06T18:10:17.746Z,13.23
2018-10-06T18:12:47.058Z,12.60
2018-10-06T18:15:16.390Z,12.83
2018-10-06T18:17:45.708Z,10.53
2018-10-06T18:20:15.088Z,12.10
2018-10-06T18:22:44.352Z,12.73
2018-10-06T18:25:13.743Z,12.00
2018-10-06T18:27:43.104Z,11.87
2018-10-06T18:30:12.469Z,12.17
2018-10-06T18:32:41.835Z,11.47
2018-10-06T18:35:11.253Z,10.37
2018-10-06T18:37:40.587Z,12.37
2018-10-06T18:40:10.319Z,16.63
2018-10-06T18:42:40.025Z,11.87
2018-10-06T18:45:09.330Z,12.43
2018-10-06T18:47:38.963Z,12.27
2018-10-06T18:50:08.842Z,10.30
2018-10-06T18:52:38.535Z,12.27
2018-10-06T18:55:08.431Z,12.80
2018-10-06T18:57:38.221Z,14.20
2018-10-06T19:00:08.816Z,14.57
2018-10-06T19:02:38.526Z,16.90
2018-10-06T19:05:08.202Z,13.83
2018-10-06T19:07:37.843Z,12.30
2018-10-06T19:10:07.480Z,12.47
2018-10-06T19:12:37.108Z,12.80
2018-10-06T19:15:06.901Z,15.93
2018-10-06T19:17:36.610Z,12.30
2018-10-06T19:20:06.759Z,11.83
2018-10-06T19:22:36.410Z,11.03
2018-10-06T19:25:06.173Z,13.00
2018-10-06T19:27:35.954Z,20.70
2018-10-06T19:30:05.777Z,18.33
2018-10-06T19:32:35.398Z,14.50
2018-10-06T19:35:05.115Z,12.70
2018-10-06T19:37:34.787Z,11.73
2018-10-06T19:40:04.422Z,12.37
2018-10-06T19:42:34.143Z,12.47
2018-10-06T19:45:03.914Z,13.83
2018-10-06T19:47:33.749Z,13.03
2018-10-06T19:50:03.567Z,13.20
2018-10-06T19:52:33.378Z,10.37
2018-10-06T19:55:03.067Z,13.53
2018-10-06T19:57:32.826Z,10.67
2018-10-06T20:00:02.655Z,12.10
2018-10-06T20:02:32.606Z,13.23
2018-10-06T20:05:02.464Z,12.63
2018-10-06T20:07:32.144Z,12.70
2018-10-06T20:10:01.987Z,10.47
2018-10-06T20:12:32.036Z,13.00
2018-10-06T20:15:01.721Z,20.00
2018-10-06T20:17:31.474Z,13.17
2018-10-06T20:20:01.273Z,13.87
2018-10-06T20:22:31.378Z,12.13
2018-10-06T20:25:01.025Z,11.70
2018-10-06T20:27:30.822Z,11.03
2018-10-06T20:30:00.664Z,11.30
2018-10-06T20:32:30.443Z,11.67
2018-10-06T20:35:00.103Z,15.67
2018-10-06T20:37:29.710Z,11.93
2018-10-06T20:39:59.418Z,10.43
2018-10-06T20:42:29.166Z,11.70
2018-10-06T20:44:58.909Z,11.67
2018-10-06T20:47:28.594Z,11.20
2018-10-06T20:49:58.226Z,12.57
2018-10-06T20:52:27.838Z,12.47
2018-10-06T20:54:57.419Z,14.30
2018-10-06T20:57:27.052Z,14.40
2018-10-06T20:59:56.750Z,12.30
2018-10-06T21:02:30.323Z,11.33
2018-10-06T21:05:00.103Z,12.07
2018-10-06T21:07:29.898Z,15.87
2018-10-06T21:09:59.591Z,17.17
2018-10-06T21:12:29.601Z,13.07
2018-10-06T21:14:59.303Z,13.40
2018-10-06T21:17:28.963Z,13.03
2018-10-06T21:19:58.663Z,9.67
2018-10-06T21:22:28.394Z,10.60
2018-10-06T21:24:58.071Z,14.47
2018-10-06T21:27:27.788Z,10.53
2018-10-06T21:29:57.444Z,9.30
2018-10-06T21:32:27.184Z,10.10
2018-10-06T21:34:56.974Z,10.97
2018-10-06T21:37:26.658Z,9.73
2018-10-06T21:39:56.301Z,12.53
2018-10-06T21:42:26.011Z,9.63
2018-10-06T21:44:55.606Z,10.63
2018-10-06T21:47:25.366Z,9.03
2018-10-06T21:49:55.168Z,12.13
2018-10-06T21:52:24.823Z,9.13
2018-10-06T21:54:54.434Z,11.43
2018-10-06T21:57:24.151Z,10.47
2018-10-06T21:59:53.838Z,12.77
2018-10-06T22:02:23.518Z,10.67
2018-10-06T22:04:53.187Z,14.33
2018-10-06T22:07:22.822Z,10.63
2018-10-06T22:09:52.553Z,10.73
2018-10-06T22:12:22.234Z,10.73
2018-10-06T22:14:54.073Z,11.17
2018-10-06T22:17:23.747Z,10.77
2018-10-06T22:20:10.125Z,10.10
2018-10-06T22:22:39.972Z,11.83
2018-10-06T22:25:09.898Z,13.73
2018-10-06T22:27:39.811Z,14.33
2018-10-06T22:30:09.990Z,14.60
2018-10-06T22:32:39.834Z,11.77
2018-10-06T22:35:09.476Z,11.23
2018-10-06T22:37:39.119Z,9.27
2018-10-06T22:40:10.082Z,9.30
2018-10-06T22:42:39.847Z,9.20
2018-10-06T22:45:11.186Z,9.27
2018-10-06T22:47:40.955Z,8.20
2018-10-06T22:50:10.702Z,8.77
2018-10-06T22:52:42.692Z,8.83
2018-10-06T22:55:15.226Z,9.13
2018-10-06T22:57:45.179Z,13.80
2018-10-06T23:00:14.851Z,17.10
2018-10-06T23:02:44.489Z,15.70
2018-10-06T23:05:15.131Z,8.67
2018-10-06T23:07:44.807Z,14.10
2018-10-06T23:10:14.447Z,9.73
2018-10-06T23:12:44.259Z,9.50
2018-10-06T23:15:13.963Z,9.33
2018-10-06T23:17:43.619Z,9.63
2018-10-06T23:20:13.294Z,8.90
2018-10-06T23:22:42.902Z,8.93
2018-10-06T23:25:12.611Z,9.77
2018-10-06T23:27:42.223Z,8.10
2018-10-06T23:30:11.864Z,8.90
2018-10-06T23:32:41.527Z,10.80
2018-10-06T23:35:11.175Z,10.80
2018-10-06T23:37:40.931Z,10.17
2018-10-06T23:40:10.686Z,10.43
2018-10-06T23:42:40.925Z,16.83
2018-10-06T23:45:10.552Z,13.73
2018-10-06T23:47:40.304Z,14.97
2018-10-06T23:50:10.146Z,12.13
2018-10-06T23:52:39.743Z,13.30
2018-10-06T23:55:09.374Z,13.33
2018-10-06T23:57:39.023Z,13.13
